Time;durP1;ratioP1;P1;durP2;ratioP2;P2;SDS_P1;SDS_P2;PMS_P1;PMS_P2;Temp;Humidity;BMP_temperature;BMP_pressure;BME280_temperature;BME280_humidity;BME280_pressure;Samples;Min_cycle;Max_cycle;Signal;HPM_P1;HPM_P2
2023/01/12 00:00:11;;;;;;;18.45;12.45;;;23.40;41.30;;;;;;6056315;28;83194;-65
2023/01/12 00:03:12;;;;;;;17.60;12.20;;;23.50;41.40;;;;;;6052001;28;83806;-65
2023/01/12 00:06:13;;;;;;;19.10;12.10;;;23.50;41.40;;;;;;6065895;28;83829;-67
2023/01/12 00:09:13;;;;;;;19.75;12.38;;;23.40;41.50;;;;;;6064115;28;83394;-65
2023/01/12 00:12:14;;;;;;;19.75;13.40;;;23.50;41.40;;;;;;6067836;28;83374;-67
2023/01/12 00:15:14;;;;;;;16.73;11.40;;;23.40;41.30;;;;;;6068379;28;83291;-67
2023/01/12 00:18:15;;;;;;;19.20;12.15;;;23.40;41.30;;;;;;6056636;28;83759;-68
2023/01/12 00:21:16;;;;;;;17.38;11.32;;;23.40;41.20;;;;;;6055819;28;83156;-69
2023/01/12 00:24:17;;;;;;;17.00;11.18;;;23.40;41.20;;;;;;6090408;28;82937;-65
2023/01/12 00:27:18;;;;;;;16.63;11.05;;;23.40;41.40;;;;;;6055345;28;83584;-67
2023/01/12 00:30:18;;;;;;;16.30;11.13;;;23.40;41.60;;;;;;6061323;28;83574;-59
2023/01/12 00:33:19;;;;;;;16.23;11.02;;;23.40;41.20;;;;;;6070117;28;83230;-59
2023/01/12 00:36:19;;;;;;;18.05;10.32;;;23.30;41.10;;;;;;6087531;28;83921;-59
2023/01/12 00:39:20;;;;;;;14.93;9.88;;;23.40;41.10;;;;;;6062773;28;83383;-59
2023/01/12 00:45:39;;;;;;;14.98;9.35;;;23.30;40.90;;;;;;6069063;28;81220;-59
2023/01/12 00:48:40;;;;;;;14.95;9.75;;;23.30;40.90;;;;;;6075274;28;80696;-72
2023/01/12 00:51:40;;;;;;;14.02;8.98;;;23.30;40.90;;;;;;6078468;28;80254;-78
2023/01/12 00:54:41;;;;;;;13.43;9.23;;;23.30;40.80;;;;;;6077098;28;80169;-78
2023/01/12 00:57:41;;;;;;;15.77;9.88;;;23.30;40.80;;;;;;6088472;28;81355;-77
2023/01/12 01:00:42;;;;;;;11.60;8.45;;;23.30;40.90;;;;;;6083569;28;80487;-77
2023/01/12 01:03:42;;;;;;;13.98;8.75;;;23.30;40.90;;;;;;6063991;28;80090;-75
2023/01/12 01:06:43;;;;;;;12.10;8.57;;;23.30;40.90;;;;;;6066014;28;80657;-59
2023/01/12 01:09:44;;;;;;;12.85;9.20;;;23.30;41.00;;;;;;6060785;28;81750;-59
2023/01/12 01:12:44;;;;;;;15.65;10.05;;;23.30;41.00;;;;;;6078050;28;80645;-58
2023/01/12 01:15:45;;;;;;;13.25;9.25;;;23.30;41.00;;;;;;6073121;28;85503;-59
2023/01/12 01:18:45;;;;;;;15.30;9.30;;;23.30;41.10;;;;;;6080727;28;82924;-59
2023/01/12 01:21:46;;;;;;;14.15;9.38;;;23.40;41.10;;;;;;6079211;28;80401;-59
2023/01/12 01:24:46;;;;;;;13.43;8.90;;;23.40;41.20;;;;;;6076151;28;80959;-58
2023/01/12 01:27:47;;;;;;;14.88;9.82;;;23.30;41.20;;;;;;6079369;28;80440;-59
2023/01/12 01:30:47;;;;;;;14.93;9.85;;;23.30;41.30;;;;;;6077495;28;80538;-59
2023/01/12 01:33:48;;;;;;;15.20;9.77;;;23.30;41.40;;;;;;6074345;28;80792;-59
2023/01/12 01:36:48;;;;;;;15.10;10.70;;;23.30;41.40;;;;;;6066151;28;80647;-59
2023/01/12 01:39:49;;;;;;;15.57;10.10;;;23.40;41.50;;;;;;6066176;28;82869;-60
2023/01/12 01:42:49;;;;;;;15.00;10.38;;;23.30;41.20;;;;;;6058091;28;83754;-65
2023/01/12 01:45:50;;;;;;;15.23;11.13;;;23.30;41.40;;;;;;6059001;28;82829;-64
2023/01/12 01:48:50;;;;;;;16.42;11.02;;;23.30;41.30;;;;;;6078376;28;85013;-64
2023/01/12 01:51:51;;;;;;;16.80;10.98;;;23.30;41.40;;;;;;6076090;28;83463;-65
2023/01/12 01:54:51;;;;;;;18.73;11.75;;;23.30;41.40;;;;;;6068946;28;83545;-66
2023/01/12 01:57:52;;;;;;;20.05;12.77;;;23.30;41.30;;;;;;6065828;28;83465;-65
2023/01/12 02:00:52;;;;;;;19.48;12.60;;;23.30;41.30;;;;;;6078136;28;85123;-64
2023/01/12 02:03:53;;;;;;;18.17;12.52;;;23.30;41.50;;;;;;6072878;28;84764;-65
2023/01/12 02:06:54;;;;;;;21.42;13.15;;;23.30;41.40;;;;;;6081289;28;83643;-65
2023/01/12 02:09:54;;;;;;;19.20;12.48;;;23.30;41.50;;;;;;6078804;28;83087;-65
2023/01/12 02:16:20;;;;;;;20.25;13.52;;;23.20;41.50;;;;;;6064444;28;83198;-66
2023/01/12 02:19:21;;;;;;;20.17;13.25;;;23.20;41.40;;;;;;6058792;28;84333;-74
2023/01/12 02:22:21;;;;;;;18.60;12.25;;;23.20;41.80;;;;;;6059626;28;83556;-71
2023/01/12 02:25:22;;;;;;;21.67;13.25;;;23.20;41.80;;;;;;6069256;28;85036;-71
2023/01/12 02:28:22;;;;;;;20.05;12.73;;;23.20;41.60;;;;;;6074808;28;83423;-72
2023/01/12 02:31:23;;;;;;;21.42;12.40;;;23.20;41.80;;;;;;6067450;28;82951;-71
2023/01/12 02:34:23;;;;;;;20.30;13.02;;;23.20;41.70;;;;;;6068484;28;83388;-71
2023/01/12 02:37:24;;;;;;;19.40;12.43;;;23.20;42.50;;;;;;6080131;28;86412;-59
2023/01/12 02:40:24;;;;;;;21.30;13.02;;;23.20;41.90;;;;;;6076940;28;83199;-60
2023/01/12 02:43:25;;;;;;;19.70;12.65;;;23.20;41.90;;;;;;6063628;28;83044;-59
2023/01/12 02:46:26;;;;;;;19.27;12.88;;;23.20;41.80;;;;;;6070163;28;84020;-59
2023/01/12 02:49:27;;;;;;;20.35;12.48;;;23.20;41.80;;;;;;6063995;28;84040;-59
2023/01/12 02:52:27;;;;;;;16.65;12.20;;;23.20;42.00;;;;;;6062007;28;83303;-59
2023/01/12 02:55:31;;;;;;;22.10;13.10;;;23.20;42.10;;;;;;6068700;28;86585;-58
2023/01/12 02:58:32;;;;;;;19.00;12.25;;;23.20;42.10;;;;;;6081453;28;83208;-70
2023/01/12 03:01:35;;;;;;;22.80;13.75;;;23.20;42.00;;;;;;6071794;28;83195;-73
2023/01/12 03:04:36;;;;;;;20.08;12.23;;;23.20;42.00;;;;;;6079448;28;84095;-71
2023/01/12 03:07:36;;;;;;;19.25;13.35;;;23.20;42.00;;;;;;6060640;28;83761;-72
2023/01/12 03:10:37;;;;;;;19.27;12.30;;;23.20;42.10;;;;;;6071198;28;84441;-72
2023/01/12 03:13:37;;;;;;;19.05;12.52;;;23.20;42.20;;;;;;6057597;28;83267;-72
2023/01/12 03:16:38;;;;;;;22.42;13.18;;;23.20;42.20;;;;;;6086952;28;82808;-72
2023/01/12 03:19:38;;;;;;;19.85;12.95;;;23.20;42.20;;;;;;6082581;28;86562;-73
2023/01/12 03:22:39;;;;;;;21.23;13.40;;;23.20;42.20;;;;;;6066715;28;83541;-73
2023/01/12 03:25:39;;;;;;;20.52;12.40;;;23.20;42.10;;;;;;6097575;28;84272;-74
2023/01/12 03:28:40;;;;;;;20.83;12.52;;;23.20;42.20;;;;;;6079124;28;83764;-74
2023/01/12 03:31:40;;;;;;;20.05;12.52;;;23.20;42.40;;;;;;6072876;28;83108;-72
2023/01/12 03:34:41;;;;;;;21.02;13.27;;;23.20;42.40;;;;;;6086755;28;83849;-71
2023/01/12 03:37:41;;;;;;;19.20;13.02;;;23.20;42.40;;;;;;6079822;28;85395;-72
2023/01/12 03:40:42;;;;;;;21.13;13.80;;;23.20;42.40;;;;;;6069328;28;83458;-72
2023/01/12 03:43:42;;;;;;;20.15;13.07;;;23.20;42.50;;;;;;6067904;28;84549;-75
2023/01/12 03:46:43;;;;;;;19.48;13.30;;;23.20;42.40;;;;;;6055417;28;83462;-74
2023/01/12 03:49:43;;;;;;;19.85;12.85;;;23.20;42.40;;;;;;6070612;28;86958;-73
2023/01/12 03:52:44;;;;;;;22.40;13.27;;;23.20;42.60;;;;;;6056330;28;83357;-62
2023/01/12 03:55:44;;;;;;;19.02;12.30;;;23.20;42.60;;;;;;6067344;28;84386;-62
2023/01/12 03:58:45;;;;;;;22.50;13.40;;;23.20;42.70;;;;;;6078918;28;83344;-63
2023/01/12 04:01:47;;;;;;;20.70;13.32;;;23.20;42.60;;;;;;6079088;28;82993;-65
2023/01/12 04:04:48;;;;;;;21.17;13.50;;;23.20;42.80;;;;;;6076178;28;83413;-68
2023/01/12 04:07:48;;;;;;;21.50;12.77;;;23.20;42.60;;;;;;6055582;28;83153;-68
2023/01/12 04:10:49;;;;;;;20.80;13.77;;;23.20;42.70;;;;;;6080792;28;82916;-66
2023/01/12 04:13:49;;;;;;;21.90;13.27;;;23.20;42.60;;;;;;6056776;28;83915;-63
2023/01/12 04:16:50;;;;;;;20.80;13.45;;;23.20;42.60;;;;;;6066089;28;82923;-68
2023/01/12 04:19:50;;;;;;;20.83;14.05;;;23.30;42.60;;;;;;6071096;28;84862;-63
2023/01/12 04:22:51;;;;;;;18.85;12.60;;;23.20;42.80;;;;;;6056256;28;84304;-65
2023/01/12 04:25:51;;;;;;;20.83;13.07;;;23.30;42.70;;;;;;6069858;28;84521;-64
2023/01/12 04:28:52;;;;;;;19.30;12.80;;;23.20;42.70;;;;;;6060484;28;83760;-64
2023/01/12 04:31:52;;;;;;;21.77;13.02;;;23.30;42.80;;;;;;6072074;28;83712;-63
2023/01/12 04:34:53;;;;;;;19.15;12.43;;;23.20;42.80;;;;;;6057037;28;83222;-63
2023/01/12 04:37:53;;;;;;;18.98;12.43;;;23.20;42.80;;;;;;6073738;28;82903;-66
2023/01/12 04:40:54;;;;;;;20.35;12.20;;;23.30;42.80;;;;;;6070923;28;83218;-63
2023/01/12 04:43:55;;;;;;;19.15;11.70;;;23.20;42.70;;;;;;6061058;28;83158;-65
2023/01/12 04:46:55;;;;;;;16.98;10.98;;;23.30;42.90;;;;;;6064552;28;84039;-59
2023/01/12 04:49:56;;;;;;;16.63;10.80;;;23.30;43.10;;;;;;6064999;28;84051;-59
2023/01/12 04:52:56;;;;;;;20.67;10.30;;;23.40;43.40;;;;;;6064228;28;83424;-60
2023/01/12 04:55:57;;;;;;;16.13;10.43;;;23.30;43.40;;;;;;6065148;28;86065;-60
2023/01/12 04:58:59;;;;;;;14.77;9.40;;;23.30;43.40;;;;;;6063549;28;83411;-59
2023/01/12 05:01:59;;;;;;;18.33;10.40;;;23.30;43.80;;;;;;6072816;28;82832;-61
2023/01/12 05:05:00;;;;;;;16.83;9.60;;;23.30;43.60;;;;;;6066018;28;83274;-66
2023/01/12 05:11:20;;;;;;;17.35;9.07;;;23.30;43.70;;;;;;6067330;28;83352;-71
2023/01/12 05:14:20;;;;;;;17.30;10.15;;;23.30;43.70;;;;;;6074369;28;83131;-69
2023/01/12 05:17:21;;;;;;;22.42;9.88;;;23.40;44.20;;;;;;6076836;28;83334;-67
2023/01/12 05:20:21;;;;;;;20.00;11.13;;;23.40;44.10;;;;;;6080148;28;83371;-69
2023/01/12 05:23:22;;;;;;;17.52;10.38;;;23.40;44.20;;;;;;6078476;28;84229;-69
2023/01/12 05:26:22;;;;;;;13.93;9.13;;;23.40;44.40;;;;;;6075522;28;83099;-72
2023/01/12 05:29:23;;;;;;;19.17;10.27;;;23.40;44.30;;;;;;6074245;28;84172;-72
2023/01/12 05:32:23;;;;;;;18.25;10.25;;;23.40;44.40;;;;;;6068149;28;82909;-67
2023/01/12 05:35:24;;;;;;;15.65;9.25;;;23.40;44.60;;;;;;6078811;28;87456;-74
2023/01/12 05:38:24;;;;;;;18.42;9.90;;;23.40;44.30;;;;;;6098083;28;82351;-77
2023/01/12 05:41:25;;;;;;;16.92;9.88;;;23.40;44.30;;;;;;6083556;28;80467;-71
2023/01/12 05:44:26;;;;;;;15.27;9.68;;;23.40;44.40;;;;;;6074661;28;82715;-74
2023/01/12 05:47:27;;;;;;;23.88;11.07;;;23.40;44.50;;;;;;6069035;28;80419;-69
2023/01/12 05:50:27;;;;;;;17.63;10.60;;;23.40;44.10;;;;;;6068517;28;83768;-75
2023/01/12 05:53:41;;;;;;;15.57;10.10;;;23.50;44.30;;;;;;6072432;28;84092;-77
2023/01/12 05:56:41;;;;;;;17.52;10.93;;;23.40;44.10;;;;;;6072807;28;83440;-79
2023/01/12 05:59:42;;;;;;;17.67;10.65;;;23.40;43.90;;;;;;6066655;28;87381;-61
2023/01/12 06:02:42;;;;;;;16.48;10.07;;;23.40;44.00;;;;;;6071540;28;83234;-62
2023/01/12 06:05:43;;;;;;;20.98;11.15;;;23.50;43.80;;;;;;6067353;28;83527;-62
2023/01/12 06:08:43;;;;;;;21.27;10.55;;;23.50;43.90;;;;;;6068910;28;83080;-61
2023/01/12 06:15:03;;;;;;;20.45;11.60;;;23.40;43.50;;;;;;6097372;28;82370;-61
2023/01/12 06:18:04;;;;;;;24.95;10.05;;;23.40;43.40;;;;;;6096791;28;85586;-60
2023/01/12 06:21:04;;;;;;;14.73;9.43;;;23.50;43.50;;;;;;6093936;28;82961;-62
2023/01/12 06:24:05;;;;;;;17.13;10.07;;;23.50;43.40;;;;;;6091973;28;83518;-61
2023/01/12 06:27:06;;;;;;;18.75;10.52;;;23.40;43.30;;;;;;6097837;28;82813;-60
2023/01/12 06:30:06;;;;;;;15.88;10.50;;;23.40;43.20;;;;;;6091181;28;83706;-62
2023/01/12 06:33:07;;;;;;;17.77;9.50;;;23.40;43.20;;;;;;6090059;28;83662;-63
2023/01/12 06:36:07;;;;;;;15.45;9.65;;;23.50;43.20;;;;;;6096760;28;83023;-71
2023/01/12 06:39:08;;;;;;;17.45;10.00;;;23.50;43.20;;;;;;6092963;28;80568;-65
2023/01/12 06:45:27;;;;;;;16.67;9.00;;;23.40;43.20;;;;;;6099425;28;81774;-65
2023/01/12 06:48:28;;;;;;;14.50;9.57;;;23.40;43.40;;;;;;6101414;28;80421;-66
2023/01/12 06:51:28;;;;;;;12.85;9.05;;;23.30;43.60;;;;;;6100762;28;80438;-69
2023/01/12 06:54:29;;;;;;;12.40;8.60;;;23.30;43.40;;;;;;6105676;28;82619;-59
2023/01/12 06:57:30;;;;;;;15.18;9.20;;;23.40;43.50;;;;;;6095774;28;80503;-67
2023/01/12 07:00:30;;;;;;;15.15;8.95;;;23.40;43.70;;;;;;6097672;28;81507;-70
2023/01/12 07:03:31;;;;;;;13.02;8.75;;;23.30;43.80;;;;;;6089013;28;81260;-67
2023/01/12 07:06:31;;;;;;;13.63;8.38;;;23.30;43.80;;;;;;6088474;28;83040;-66
2023/01/12 07:09:32;;;;;;;14.60;8.90;;;23.30;43.80;;;;;;6096231;28;80494;-66
2023/01/12 07:12:33;;;;;;;15.95;8.88;;;23.30;43.80;;;;;;6094594;28;80975;-66
2023/01/12 07:15:33;;;;;;;14.73;8.80;;;23.40;43.90;;;;;;6090139;28;84112;-70
2023/01/12 07:18:34;;;;;;;13.52;8.50;;;23.40;43.90;;;;;;6093386;28;81985;-67
2023/01/12 07:21:34;;;;;;;14.38;8.55;;;23.30;43.90;;;;;;6088905;28;80604;-68
2023/01/12 07:24:35;;;;;;;12.25;8.35;;;23.30;43.80;;;;;;6093548;28;80514;-67
2023/01/12 07:27:35;;;;;;;12.38;8.48;;;23.30;43.80;;;;;;6092112;28;80596;-67
2023/01/12 07:30:36;;;;;;;14.90;9.50;;;23.30;43.70;;;;;;6088514;28;81016;-68
2023/01/12 07:33:37;;;;;;;13.32;8.38;;;23.30;43.80;;;;;;6089119;28;81211;-58
2023/01/12 07:36:38;;;;;;;11.82;7.55;;;23.30;43.70;;;;;;6096049;28;83830;-56
2023/01/12 07:39:38;;;;;;;11.98;7.72;;;23.30;43.60;;;;;;6096827;28;82569;-59
2023/01/12 07:42:39;;;;;;;13.23;7.75;;;23.30;43.70;;;;;;6103277;28;82247;-59
2023/01/12 07:45:39;;;;;;;11.80;7.07;;;23.40;43.90;;;;;;6099330;28;80200;-59
2023/01/12 07:48:40;;;;;;;11.68;7.50;;;23.40;43.90;;;;;;6097933;28;80804;-60
2023/01/12 07:51:40;;;;;;;13.75;7.40;;;23.40;43.90;;;;;;6103515;28;81274;-72
2023/01/12 07:54:41;;;;;;;11.60;7.22;;;23.40;43.90;;;;;;6106226;28;80500;-73
2023/01/12 07:57:41;;;;;;;11.38;6.85;;;23.40;43.80;;;;;;6105566;28;81011;-69
2023/01/12 08:00:42;;;;;;;10.30;7.00;;;23.40;44.00;;;;;;6105823;28;82139;-68
2023/01/12 08:03:42;;;;;;;17.27;7.35;;;23.30;43.70;;;;;;6105330;28;81431;-68
2023/01/12 08:06:43;;;;;;;12.57;7.32;;;23.30;43.80;;;;;;6077865;28;82026;-71
2023/01/12 08:09:44;;;;;;;10.70;7.05;;;23.30;43.80;;;;;;6107169;28;80547;-69
2023/01/12 08:12:44;;;;;;;12.60;7.28;;;23.40;43.80;;;;;;6100881;28;80546;-68
2023/01/12 08:15:45;;;;;;;8.73;6.78;;;23.40;43.80;;;;;;6107949;28;80587;-69
2023/01/12 08:18:45;;;;;;;11.43;6.93;;;23.40;43.80;;;;;;6104644;28;80931;-68
2023/01/12 08:21:46;;;;;;;15.07;7.82;;;23.40;43.80;;;;;;6108249;28;82451;-72
2023/01/12 08:24:46;;;;;;;14.80;7.38;;;23.40;43.80;;;;;;6118342;28;80176;-74
2023/01/12 08:27:47;;;;;;;13.88;7.70;;;23.40;43.80;;;;;;6105987;28;80599;-71
2023/01/12 08:30:47;;;;;;;11.43;7.07;;;23.40;43.80;;;;;;6105976;28;80406;-74
2023/01/12 08:33:48;;;;;;;13.70;7.63;;;23.40;43.80;;;;;;6106258;28;84593;-71
2023/01/12 08:36:48;;;;;;;37.03;20.48;;;23.40;43.70;;;;;;6105792;28;82430;-71
2023/01/12 08:39:49;;;;;;;92.95;50.40;;;23.40;43.80;;;;;;6106872;28;85695;-67
2023/01/12 08:42:49;;;;;;;149.48;78.85;;;23.40;43.80;;;;;;6096328;28;84609;-71
2023/01/12 08:45:50;;;;;;;186.85;95.18;;;23.50;43.90;;;;;;6104026;28;83270;-63
2023/01/12 08:48:52;;;;;;;264.13;134.15;;;23.50;43.90;;;;;;6093997;28;83466;-63
2023/01/12 08:51:53;;;;;;;265.55;133.90;;;23.50;44.10;;;;;;6100867;28;85268;-62
2023/01/12 08:54:53;;;;;;;203.38;107.47;;;23.50;44.10;;;;;;6088317;28;85740;-63
2023/01/12 08:57:54;;;;;;;199.57;99.82;;;23.50;44.20;;;;;;6100828;28;86273;-60
2023/01/12 09:00:54;;;;;;;168.65;84.00;;;23.50;44.20;;;;;;6101582;28;85270;-61
2023/01/12 09:03:55;;;;;;;151.98;75.30;;;23.50;44.00;;;;;;6104151;28;84023;-59
2023/01/12 09:06:55;;;;;;;113.25;61.35;;;23.50;44.20;;;;;;6103474;28;83056;-59
2023/01/12 09:09:56;;;;;;;97.10;48.05;;;23.50;43.90;;;;;;6097368;28;84476;-59
2023/01/12 09:12:56;;;;;;;93.70;43.42;;;23.40;43.70;;;;;;6101956;28;83197;-59
2023/01/12 09:15:57;;;;;;;78.57;39.33;;;23.40;43.70;;;;;;6102112;28;83147;-60
2023/01/12 09:18:58;;;;;;;67.07;35.47;;;23.40;43.70;;;;;;6108985;28;83200;-59
2023/01/12 09:21:58;;;;;;;64.75;32.65;;;23.40;43.70;;;;;;6102506;28;83426;-58
2023/01/12 09:24:59;;;;;;;57.45;29.33;;;23.50;43.70;;;;;;6101336;28;83220;-59
2023/01/12 09:27:59;;;;;;;50.67;27.35;;;23.50;43.70;;;;;;6102864;28;82936;-58
2023/01/12 09:31:00;;;;;;;44.97;24.73;;;23.50;43.50;;;;;;6107143;28;83280;-58
2023/01/12 09:34:00;;;;;;;40.80;20.55;;;23.60;43.70;;;;;;6086772;28;85701;-58
2023/01/12 09:37:01;;;;;;;35.72;19.35;;;23.70;43.60;;;;;;6070595;28;83791;-58
2023/01/12 09:40:03;;;;;;;29.70;16.38;;;23.80;43.50;;;;;;6069137;28;83721;-63
2023/01/12 09:49:42;;;;;;;23.88;13.75;;;24.10;43.20;;;;;;6059701;28;86804;-60
2023/01/12 09:52:43;;;;;;;24.85;14.45;;;24.40;43.10;;;;;;6062778;28;83090;-60
2023/01/12 09:55:44;;;;;;;27.40;14.30;;;24.50;42.90;;;;;;6059823;28;84330;-61
2023/01/12 09:58:44;;;;;;;27.92;12.27;;;24.60;42.70;;;;;;6064586;28;82680;-58
2023/01/12 10:01:45;;;;;;;29.02;12.90;;;24.80;42.60;;;;;;6064859;28;83610;-58
2023/01/12 10:04:45;;;;;;;23.33;11.55;;;25.00;42.60;;;;;;6058632;28;83020;-58
2023/01/12 10:07:46;;;;;;;21.10;10.80;;;25.10;42.60;;;;;;6061393;28;83229;-58
2023/01/12 10:10:46;;;;;;;22.75;10.23;;;25.20;42.70;;;;;;6067608;28;83133;-59
2023/01/12 10:13:47;;;;;;;19.73;10.93;;;25.30;42.70;;;;;;6081670;28;83714;-59
2023/01/12 10:16:47;;;;;;;19.98;10.13;;;25.40;42.70;;;;;;6078585;28;84311;-74
2023/01/12 10:19:48;;;;;;;16.80;9.88;;;25.50;42.70;;;;;;6081897;28;82896;-72
2023/01/12 10:22:48;;;;;;;28.48;10.70;;;25.60;42.60;;;;;;6084737;28;83236;-72
2023/01/12 10:25:49;;;;;;;16.60;9.75;;;25.70;42.50;;;;;;6070178;28;90433;-69
2023/01/12 10:28:51;;;;;;;14.82;9.15;;;25.80;42.50;;;;;;6081230;28;81803;-69
2023/01/12 10:31:52;;;;;;;14.57;8.85;;;25.90;42.50;;;;;;6092025;28;80831;-69
2023/01/12 10:34:52;;;;;;;18.08;8.80;;;26.00;42.40;;;;;;6083978;28;81016;-67
2023/01/12 10:37:53;;;;;;;16.52;9.07;;;26.10;42.30;;;;;;6079278;28;80778;-72
2023/01/12 10:40:53;;;;;;;18.40;9.32;;;26.30;42.20;;;;;;6081387;28;80850;-68
2023/01/12 10:43:54;;;;;;;23.02;9.32;;;26.40;42.20;;;;;;6069222;28;88230;-69
2023/01/12 10:46:54;;;;;;;21.85;9.27;;;26.50;42.30;;;;;;6062349;28;80642;-68
2023/01/12 10:49:55;;;;;;;19.92;10.23;;;26.60;42.50;;;;;;6067981;28;83054;-70
2023/01/12 10:52:55;;;;;;;29.38;10.90;;;26.80;42.60;;;;;;6064934;28;82763;-70
2023/01/12 10:55:56;;;;;;;22.05;10.68;;;26.90;42.60;;;;;;6067851;28;83708;-61
2023/01/12 10:58:57;;;;;;;31.17;11.35;;;27.00;42.80;;;;;;6066601;28;83274;-62
2023/01/12 11:01:58;;;;;;;32.05;11.25;;;27.10;42.90;;;;;;6076545;28;84380;-62
2023/01/12 11:04:58;;;;;;;32.17;12.40;;;27.20;42.90;;;;;;6075440;28;82891;-61
2023/01/12 11:07:59;;;;;;;35.15;13.63;;;27.30;43.30;;;;;;6063704;28;83859;-63
2023/01/12 11:10:59;;;;;;;31.77;12.55;;;27.30;43.60;;;;;;6088522;28;84094;-62
2023/01/12 11:14:00;;;;;;;31.50;12.77;;;27.40;43.70;;;;;;6072970;28;83370;-61
2023/01/12 11:17:00;;;;;;;39.42;13.48;;;27.50;43.90;;;;;;6064933;28;83011;-60
2023/01/12 11:20:01;;;;;;;34.67;13.38;;;27.60;43.90;;;;;;6071337;28;83094;-59
2023/01/12 11:23:01;;;;;;;37.88;13.25;;;27.70;44.50;;;;;;6067663;28;84566;-61
2023/01/12 11:26:02;;;;;;;33.28;13.10;;;27.80;44.50;;;;;;6072066;28;83515;-61
2023/01/12 11:29:03;;;;;;;32.90;13.20;;;27.80;44.30;;;;;;6071452;28;84537;-60
2023/01/12 11:32:03;;;;;;;42.65;13.60;;;27.80;44.20;;;;;;6062118;28;83478;-70
2023/01/12 11:35:04;;;;;;;35.20;14.20;;;27.70;44.10;;;;;;6068044;28;85192;-71
2023/01/12 11:38:05;;;;;;;31.50;13.50;;;27.60;44.10;;;;;;6069251;28;83935;-71
2023/01/12 11:41:05;;;;;;;28.27;12.77;;;27.50;44.20;;;;;;6071578;28;83500;-69
2023/01/12 11:44:06;;;;;;;29.00;13.48;;;27.40;44.40;;;;;;6062387;28;83445;-69
2023/01/12 11:47:06;;;;;;;37.63;13.75;;;27.20;44.30;;;;;;6074760;28;86004;-73
2023/01/12 11:50:07;;;;;;;33.38;13.48;;;27.10;44.50;;;;;;6080489;28;83457;-61
2023/01/12 11:53:08;;;;;;;37.80;14.52;;;27.00;44.70;;;;;;6080904;28;83208;-59
2023/01/12 11:56:09;;;;;;;40.78;15.18;;;27.00;45.10;;;;;;6066806;28;86087;-60
2023/01/12 11:59:09;;;;;;;38.65;15.27;;;26.90;45.60;;;;;;6076773;28;83917;-59
2023/01/12 12:02:10;;;;;;;39.17;15.38;;;26.80;46.00;;;;;;6075981;28;85559;-59
2023/01/12 12:05:10;;;;;;;31.48;14.38;;;26.70;46.10;;;;;;6066779;28;84135;-60
2023/01/12 12:08:11;;;;;;;34.42;13.63;;;26.60;46.10;;;;;;6070650;28;83257;-67
2023/01/12 12:11:11;;;;;;;28.83;12.43;;;26.50;46.00;;;;;;6063245;28;83541;-66
2023/01/12 12:14:12;;;;;;;33.35;13.25;;;26.40;46.00;;;;;;6084308;28;83219;-68
2023/01/12 12:17:12;;;;;;;29.20;11.63;;;26.40;46.10;;;;;;6073182;28;85573;-70
2023/01/12 12:20:13;;;;;;;31.35;11.93;;;26.40;46.10;;;;;;6059668;28;83422;-69
2023/01/12 12:23:13;;;;;;;30.08;12.13;;;26.40;46.30;;;;;;6077717;28;83223;-66
2023/01/12 12:26:14;;;;;;;26.75;11.25;;;26.30;46.20;;;;;;6075886;28;83448;-60
2023/01/12 12:29:15;;;;;;;25.75;10.35;;;26.20;45.80;;;;;;6067945;28;85641;-60
2023/01/12 12:32:15;;;;;;;20.73;9.85;;;26.10;45.60;;;;;;6063112;28;82965;-60
2023/01/12 12:35:17;;;;;;;20.67;10.15;;;26.00;45.40;;;;;;6071494;28;83556;-59
2023/01/12 12:38:21;;;;;;;20.55;9.10;;;25.90;45.20;;;;;;6072687;28;82848;-61
2023/01/12 12:48:00;;;;;;;19.48;8.52;;;26.50;45.30;;;;;;6090558;28;88519;-60
2023/01/12 12:51:01;;;;;;;19.27;9.00;;;26.60;44.80;;;;;;6090318;28;81969;-59
2023/01/12 12:54:01;;;;;;;16.25;7.82;;;26.80;44.40;;;;;;6097908;28;80445;-59
2023/01/12 12:57:02;;;;;;;18.98;8.13;;;26.90;44.00;;;;;;6091704;28;82684;-59
2023/01/12 13:00:03;;;;;;;18.48;8.35;;;27.00;43.80;;;;;;6091284;28;83051;-59
2023/01/12 13:03:03;;;;;;;16.30;6.97;;;27.10;43.50;;;;;;6092332;28;80478;-68
2023/01/12 13:06:04;;;;;;;17.65;6.47;;;27.20;43.10;;;;;;6093484;28;81030;-64
2023/01/12 13:09:04;;;;;;;12.85;6.20;;;27.20;42.80;;;;;;6089167;28;80797;-66
2023/01/12 13:12:05;;;;;;;12.35;6.38;;;27.30;42.40;;;;;;6088489;28;82124;-66
2023/01/12 13:15:05;;;;;;;13.60;6.55;;;27.40;42.30;;;;;;6093430;28;81363;-69
2023/01/12 13:18:06;;;;;;;17.40;6.00;;;27.40;42.20;;;;;;6090600;28;81597;-67
2023/01/12 13:21:06;;;;;;;12.52;6.05;;;27.50;42.80;;;;;;6093256;28;80048;-67
2023/01/12 13:24:07;;;;;;;12.18;5.10;;;27.50;42.70;;;;;;6100554;28;81650;-69
2023/01/12 13:27:07;;;;;;;12.63;5.15;;;27.50;42.00;;;;;;6093636;28;80303;-69
2023/01/12 13:30:08;;;;;;;12.38;5.63;;;27.50;41.90;;;;;;6077797;28;80604;-70
2023/01/12 13:33:08;;;;;;;14.32;5.45;;;27.60;41.90;;;;;;6086925;28;80694;-69
2023/01/12 13:36:09;;;;;;;9.10;5.15;;;27.60;41.90;;;;;;6097450;28;82428;-69
2023/01/12 13:39:09;;;;;;;14.15;4.95;;;27.60;41.90;;;;;;6083788;28;80271;-58
2023/01/12 13:45:29;;;;;;;10.88;5.20;;;27.60;42.00;;;;;;6066315;28;80658;-60
2023/01/12 13:48:30;;;;;;;9.45;5.13;;;27.50;42.20;;;;;;6071109;28;80632;-59
2023/01/12 13:51:30;;;;;;;9.93;4.82;;;27.50;42.30;;;;;;6070231;28;80552;-60
2023/01/12 13:54:32;;;;;;;10.93;4.70;;;27.50;42.50;;;;;;6080434;28;80806;-59
2023/01/12 13:57:32;;;;;;;6.25;4.40;;;27.50;42.70;;;;;;6084319;28;80561;-71
2023/01/12 14:00:33;;;;;;;10.65;4.97;;;27.50;42.60;;;;;;6079352;28;80963;-72
2023/01/12 14:03:34;;;;;;;8.25;4.15;;;27.50;42.30;;;;;;6078222;28;84650;-75
2023/01/12 14:06:34;;;;;;;8.50;4.45;;;27.50;41.90;;;;;;6088065;28;80891;-72
2023/01/12 14:09:35;;;;;;;9.13;4.63;;;27.60;41.70;;;;;;6087311;28;80500;-71
2023/01/12 14:12:35;;;;;;;7.00;3.90;;;27.60;41.30;;;;;;6089246;28;81036;-66
2023/01/12 14:18:55;;;;;;;8.38;3.20;;;27.80;40.80;;;;;;6082635;28;80838;-75
2023/01/12 14:21:56;;;;;;;8.40;3.20;;;27.90;39.40;;;;;;6067782;28;81290;-75
2023/01/12 14:24:56;;;;;;;6.32;3.30;;;28.00;37.90;;;;;;6071017;28;82921;-74
2023/01/12 14:27:57;;;;;;;7.75;3.15;;;28.00;36.00;;;;;;6072925;28;80515;-73
2023/01/12 14:30:57;;;;;;;5.03;2.70;;;27.80;34.70;;;;;;6095909;28;80433;-75
2023/01/12 14:33:58;;;;;;;21.85;9.38;;;27.60;34.50;;;;;;6096985;28;80468;-58
2023/01/12 14:36:58;;;;;;;73.80;34.58;;;27.30;34.00;;;;;;6071595;28;80527;-60
2023/01/12 14:39:59;;;;;;;190.05;94.25;;;27.10;34.20;;;;;;6068431;28;83373;-59
2023/01/12 14:46:25;;;;;;;310.25;151.25;;;26.70;34.30;;;;;;6070746;28;83353;-60
2023/01/12 14:49:27;;;;;;;221.85;106.95;;;26.40;34.20;;;;;;6067268;28;85245;-59
2023/01/12 14:52:27;;;;;;;363.35;166.38;;;26.30;34.40;;;;;;6077818;28;85516;-61
2023/01/12 14:55:28;;;;;;;269.33;126.45;;;26.10;34.30;;;;;;6066294;28;85649;-62
2023/01/12 14:58:28;;;;;;;295.75;145.02;;;25.90;35.20;;;;;;6073448;28;85539;-64
2023/01/12 15:01:29;;;;;;;298.88;146.68;;;25.90;35.30;;;;;;6074722;28;86358;-63
2023/01/12 15:04:30;;;;;;;316.75;163.85;;;25.70;35.70;;;;;;6075430;28;87264;-61
2023/01/12 15:07:30;;;;;;;400.88;190.98;;;25.70;36.20;;;;;;6068223;28;85816;-60
2023/01/12 15:10:31;;;;;;;390.33;197.80;;;25.60;36.60;;;;;;6079493;28;86264;-61
2023/01/12 15:13:34;;;;;;;359.63;171.90;;;25.50;37.00;;;;;;6075724;28;88881;-61
2023/01/12 15:26:32;;;;;;;233.60;111.13;;;25.20;38.20;;;;;;6078501;28;85819;-62
2023/01/12 15:29:33;;;;;;;226.65;110.53;;;25.10;38.40;;;;;;6078650;28;85656;-62
2023/01/12 15:32:33;;;;;;;215.57;104.43;;;25.10;38.70;;;;;;6119136;28;85637;-61
2023/01/12 15:35:34;;;;;;;213.02;103.40;;;25.10;38.90;;;;;;6095074;28;92273;-60
2023/01/12 15:38:34;;;;;;;187.82;90.50;;;25.00;39.30;;;;;;6103014;28;85259;-60
2023/01/12 15:44:54;;;;;;;175.43;82.90;;;24.90;39.50;;;;;;6092926;28;87347;-60
2023/01/12 15:47:55;;;;;;;168.68;83.28;;;24.90;39.70;;;;;;6100420;28;84908;-61
2023/01/12 15:50:55;;;;;;;152.65;77.43;;;24.90;39.90;;;;;;6109135;28;83788;-60
2023/01/12 15:53:56;;;;;;;146.63;72.28;;;24.80;40.10;;;;;;6108441;28;83806;-63
2023/01/12 15:56:58;;;;;;;143.80;65.70;;;24.80;40.10;;;;;;6103900;28;84350;-61
2023/01/12 15:59:58;;;;;;;125.57;63.33;;;24.80;40.00;;;;;;6104890;28;83677;-61
2023/01/12 16:02:59;;;;;;;117.35;58.22;;;24.80;40.20;;;;;;6101015;28;83102;-61
2023/01/12 16:06:00;;;;;;;118.15;57.88;;;24.80;40.20;;;;;;6121381;28;83299;-70
2023/01/12 16:09:00;;;;;;;119.32;57.33;;;24.70;40.40;;;;;;6105008;28;84100;-71